Time;durP1;ratioP1;P1;durP2;ratioP2;P2;SDS_P1;SDS_P2;PMS_P1;PMS_P2;Temp;Humidity;BMP_temperature;BMP_pressure;BME280_temperature;BME280_humidity;BME280_pressure;Samples;Min_cycle;Max_cycle;Signal;HPM_P1;HPM_P2
2021/12/31 00:03:48;;;;;;;2.88;0.80;;;;;;;16.04;63.93;101118.41;19735009;30;20052;-72
2021/12/31 00:13:50;;;;;;;3.08;1.10;;;;;;;16.00;63.92;101119.63;19734734;30;20059;-72
2021/12/31 00:23:52;;;;;;;2.67;0.90;;;;;;;15.95;64.22;101117.28;19748130;30;20055;-72
2021/12/31 00:33:54;;;;;;;2.13;0.98;;;;;;;15.73;64.35;101058.97;19748503;30;20117;-72
2021/12/31 00:43:55;;;;;;;3.63;1.00;;;;;;;15.86;64.41;101106.34;19747443;30;20407;-71
2021/12/31 00:53:57;;;;;;;3.90;1.05;;;;;;;15.79;64.18;101090.72;19745951;30;20060;-71
2021/12/31 01:03:59;;;;;;;2.63;0.60;;;;;;;15.66;64.02;101085.41;19746183;30;20055;-71
2021/12/31 01:14:04;;;;;;;2.72;0.88;;;;;;;15.79;64.06;101114.88;19745430;30;20068;-71
2021/12/31 01:24:06;;;;;;;3.53;1.30;;;;;;;15.81;64.07;101126.34;19745690;30;20469;-71
2021/12/31 01:34:08;;;;;;;1.83;0.88;;;;;;;14.93;64.30;100980.91;19743913;30;20487;-71
2021/12/31 01:44:10;;;;;;;3.15;1.10;;;;;;;15.27;64.13;101041.03;19743532;30;20071;-72
2021/12/31 01:54:12;;;;;;;1.88;0.82;;;;;;;15.54;64.24;101096.25;19743003;30;20060;-71
2021/12/31 02:04:13;;;;;;;3.25;1.30;;;;;;;15.51;64.15;101108.94;19742308;30;20407;-72
2021/12/31 02:14:15;;;;;;;2.08;0.95;;;;;;;15.21;64.50;101056.59;19741340;30;20113;-71
2021/12/31 02:24:18;;;;;;;2.83;1.08;;;;;;;15.25;64.02;101042.97;19754217;30;20060;-72
2021/12/31 02:34:21;;;;;;;3.05;0.80;;;;;;;15.48;64.46;101089.50;19739994;30;20103;-71
2021/12/31 02:44:23;;;;;;;4.13;1.38;;;;;;;15.19;64.14;101031.72;19738571;30;20058;-72
2021/12/31 02:54:26;;;;;;;1.80;0.70;;;;;;;15.55;64.34;101103.34;19738662;30;20149;-71
2021/12/31 03:04:30;;;;;;;2.55;1.00;;;;;;;15.54;64.34;101117.72;19722182;30;20067;-72
2021/12/31 03:14:32;;;;;;;4.00;1.58;;;;;;;15.55;64.29;101098.81;19736121;30;20059;-72
2021/12/31 03:24:34;;;;;;;4.55;1.40;;;;;;;15.53;64.51;101108.81;19720693;30;20515;-71
2021/12/31 03:34:36;;;;;;;2.78;1.33;;;;;;;15.49;64.80;101077.81;19736275;30;20056;-71
2021/12/31 03:44:38;;;;;;;1.58;1.00;;;;;;;15.44;64.47;101063.88;19735917;30;20067;-71
2021/12/31 03:54:39;;;;;;;2.70;1.00;;;;;;;15.17;64.49;101025.63;19719354;30;20059;-71
2021/12/31 04:04:41;;;;;;;2.28;1.08;;;;;;;15.22;64.32;101018.09;19735151;30;20056;-71
2021/12/31 04:14:43;;;;;;;2.63;0.98;;;;;;;15.35;64.51;101057.38;19734998;30;20129;-71
2021/12/31 04:34:47;;;;;;;2.47;1.13;;;;;;;15.12;64.84;101016.19;19733920;30;20094;-71
2021/12/31 04:44:49;;;;;;;2.75;1.00;;;;;;;15.43;64.56;101073.75;19733541;30;20491;-72
2021/12/31 04:54:53;;;;;;;1.88;1.00;;;;;;;15.44;64.77;101085.34;19733350;30;20530;-72
2021/12/31 05:04:54;;;;;;;1.83;0.90;;;;;;;15.10;65.02;100992.19;19738458;30;20062;-72
2021/12/31 05:14:56;;;;;;;2.28;0.95;;;;;;;15.26;64.86;100986.53;19746969;30;20064;-72
2021/12/31 05:24:58;;;;;;;1.38;0.98;;;;;;;15.86;64.22;101033.84;19744622;30;20067;-72
2021/12/31 05:34:59;;;;;;;0.82;0.63;;;;;;;15.94;64.23;101010.00;19744053;30;20059;-72
2021/12/31 05:45:01;;;;;;;2.05;0.68;;;;;;;15.73;63.93;100972.25;19756962;30;20116;-71
2021/12/31 05:55:05;;;;;;;1.80;0.75;;;;;;;15.90;64.32;101005.81;19742878;30;20059;-72
2021/12/31 06:05:07;;;;;;;1.65;0.80;;;;;;;16.00;64.60;100988.03;19742249;30;20129;-72
2021/12/31 06:15:10;;;;;;;1.77;0.73;;;;;;;15.76;64.63;100919.16;19740830;30;20423;-72
2021/12/31 06:25:11;;;;;;;1.42;0.70;;;;;;;15.85;65.05;100941.75;19740632;30;20064;-72
2021/12/31 06:35:13;;;;;;;1.50;0.65;;;;;;;16.62;65.02;101034.16;19739912;30;20067;-72
2021/12/31 06:45:15;;;;;;;2.90;0.77;;;;;;;16.71;64.88;101008.34;19752843;30;20067;-72
2021/12/31 06:55:17;;;;;;;1.33;0.82;;;;;;;16.77;65.45;101004.28;19722945;30;20147;-72
2021/12/31 07:05:19;;;;;;;1.15;0.60;;;;;;;16.08;65.89;100886.22;19737898;30;20546;-74
2021/12/31 07:15:21;;;;;;;2.47;0.55;;;;;;;16.93;66.05;101022.69;19751127;30;20054;-71
2021/12/31 07:25:22;;;;;;;0.60;0.50;;;;;;;16.75;66.21;100972.16;19720321;30;20071;-71
2021/12/31 07:35:25;;;;;;;1.60;0.63;;;;;;;16.90;66.55;100970.03;19736449;30;20060;-72
2021/12/31 07:45:27;;;;;;;2.28;0.63;;;;;;;16.86;66.89;100978.47;19720928;30;20063;-74
2021/12/31 07:55:29;;;;;;;1.80;0.50;;;;;;;15.70;67.31;100798.88;19735354;30;20106;-73
2021/12/31 08:05:32;;;;;;;1.33;0.60;;;;;;;16.52;66.84;100925.69;19734096;30;20064;-73
2021/12/31 08:15:34;;;;;;;1.98;0.70;;;;;;;17.09;67.07;101041.16;19734770;30;20055;-73
2021/12/31 08:25:40;;;;;;;0.85;0.60;;;;;;;16.92;66.96;101029.94;19734162;30;20414;-73
2021/12/31 08:35:42;;;;;;;2.03;0.70;;;;;;;17.07;66.70;101049.38;19734105;30;20483;-73
2021/12/31 08:45:44;;;;;;;1.42;0.80;;;;;;;17.16;66.55;101041.50;19747538;30;20063;-72
2021/12/31 08:55:46;;;;;;;3.00;1.05;;;;;;;16.78;66.41;101006.88;19745812;30;20060;-73
2021/12/31 09:05:47;;;;;;;2.35;0.90;;;;;;;16.88;66.18;101023.09;19747580;30;20471;-72
2021/12/31 09:15:49;;;;;;;2.90;1.17;;;;;;;16.62;66.13;100988.44;19745671;30;20055;-72
2021/12/31 09:25:51;;;;;;;3.83;1.17;;;;;;;16.66;65.93;101016.78;19745332;30;20052;-72
2021/12/31 09:35:53;;;;;;;1.02;0.70;;;;;;;17.21;65.99;101077.78;19744295;30;20507;-73
2021/12/31 09:45:55;;;;;;;3.40;1.40;;;;;;;17.17;65.91;101076.34;19743579;30;20067;-72
2021/12/31 09:55:58;;;;;;;1.83;0.90;;;;;;;17.25;65.96;101110.69;19742587;30;20117;-72
2021/12/31 10:06:10;;;;;;;1.73;0.90;;;;;;;17.25;65.67;101113.38;19742132;30;20525;-73
2021/12/31 10:16:23;;;;;;;1.88;0.70;;;;;;;17.02;65.44;101097.31;19756404;30;20056;-72
2021/12/31 10:26:30;;;;;;;1.88;0.90;;;;;;;17.27;65.49;101099.81;19740515;30;20146;-72
2021/12/31 10:36:37;;;;;;;1.65;0.80;;;;;;;17.27;65.40;101118.63;19741321;30;20083;-74
2021/12/31 10:46:39;;;;;;;1.48;0.77;;;;;;;17.25;65.18;101116.06;19738312;30;20063;-72
2021/12/31 10:56:41;;;;;;;2.10;0.90;;;;;;;17.17;65.18;101076.34;19722349;30;20060;-72
2021/12/31 11:06:44;;;;;;;1.52;0.88;;;;;;;16.86;65.12;101019.69;19737483;30;20063;-73
2021/12/31 11:16:46;;;;;;;1.50;0.90;;;;;;;17.18;65.04;101061.91;19737345;30;20398;-72
2021/12/31 11:26:48;;;;;;;1.83;0.70;;;;;;;17.32;64.90;101067.97;19737000;30;20063;-72
2021/12/31 11:36:54;;;;;;;1.17;0.88;;;;;;;16.89;64.82;100954.91;19751175;30;20502;-72
2021/12/31 11:47:16;;;;;;;1.55;1.05;;;;;;;17.34;64.82;101025.66;19735741;30;20094;-75
2021/12/31 11:57:28;;;;;;;1.85;0.80;;;;;;;16.67;64.42;100902.06;19734238;30;20094;-72
2021/12/31 12:07:38;;;;;;;2.00;0.80;;;;;;;17.20;65.19;100973.84;19733714;30;20056;-75
2021/12/31 12:17:43;;;;;;;2.97;1.02;;;;;;;16.80;65.08;100923.41;19730709;30;20059;-72
2021/12/31 12:27:52;;;;;;;2.43;1.10;;;;;;;17.00;65.35;100972.00;19749034;30;20113;-72
2021/12/31 12:38:05;;;;;;;3.05;1.10;;;;;;;16.96;65.61;100976.72;19748322;30;20320;-73
2021/12/31 12:48:07;;;;;;;2.30;1.27;;;;;;;17.34;66.15;101039.09;19746356;30;20060;-73
2021/12/31 12:58:21;;;;;;;2.47;1.20;;;;;;;16.96;66.30;100966.84;19730926;30;20109;-73
2021/12/31 13:08:23;;;;;;;1.80;1.25;;;;;;;17.32;66.34;101031.16;19730540;30;20068;-73
2021/12/31 13:18:27;;;;;;;1.88;1.33;;;;;;;17.32;66.46;101039.22;19745523;30;20055;-73
2021/12/31 13:28:29;;;;;;;1.43;1.10;;;;;;;17.34;66.49;101053.41;19743956;30;20060;-73
2021/12/31 13:38:31;;;;;;;1.55;1.02;;;;;;;17.27;65.90;101060.28;19744244;30;20142;-73
2021/12/31 13:48:32;;;;;;;2.13;1.20;;;;;;;17.35;66.26;101098.16;19743502;30;20113;-73
2021/12/31 13:58:39;;;;;;;1.08;0.98;;;;;;;17.29;66.01;101096.00;19743063;30;20521;-73
2021/12/31 14:08:42;;;;;;;2.53;1.35;;;;;;;17.36;65.99;101131.31;19742157;30;20083;-73
2021/12/31 14:18:45;;;;;;;2.35;1.27;;;;;;;17.33;65.96;101124.34;19741586;30;20082;-74
2021/12/31 14:28:47;;;;;;;2.97;1.30;;;;;;;16.91;65.91;101055.13;19740446;30;20052;-73
2021/12/31 14:38:49;;;;;;;1.98;1.00;;;;;;;17.40;65.83;101151.63;19739039;30;20063;-73
2021/12/31 14:48:51;;;;;;;2.13;1.13;;;;;;;17.23;65.60;101136.84;19739307;30;20433;-73
2021/12/31 14:58:52;;;;;;;3.13;1.20;;;;;;;17.16;65.60;101117.66;19738377;30;20059;-73
2021/12/31 15:09:27;;;;;;;2.47;1.08;;;;;;;16.92;65.60;101083.72;21274919;27;1253970;-73
2021/12/31 15:19:29;;;;;;;1.70;1.00;;;;;;;17.05;65.54;101109.63;21229613;28;20104;-73
2021/12/31 15:29:31;;;;;;;2.63;1.23;;;;;;;17.37;65.43;101170.72;21229134;27;20481;-73
2021/12/31 15:39:35;;;;;;;2.50;0.90;;;;;;;16.57;65.30;101035.47;21228011;27;20047;-73
2021/12/31 15:49:37;;;;;;;3.05;1.40;;;;;;;17.40;65.31;101192.81;21227775;27;20053;-73
2021/12/31 15:59:39;;;;;;;2.95;1.20;;;;;;;17.11;65.23;101157.53;21226872;27;20043;-73
2021/12/31 16:09:42;;;;;;;3.13;1.35;;;;;;;16.96;65.21;101160.47;21225775;28;20476;-74
2021/12/31 16:19:43;;;;;;;2.13;0.88;;;;;;;16.92;65.25;101156.31;21174936;27;20048;-74
2021/12/31 16:29:45;;;;;;;3.55;1.33;;;;;;;17.41;65.33;101250.22;21167338;28;20051;-73
2021/12/31 16:39:47;;;;;;;2.53;1.40;;;;;;;17.20;65.17;101242.88;21166070;28;20042;-73
2021/12/31 16:49:50;;;;;;;3.08;1.30;;;;;;;16.85;65.21;101183.81;21164632;28;20537;-73
2021/12/31 16:59:51;;;;;;;3.17;1.30;;;;;;;16.93;65.06;101193.00;21165979;28;20051;-74
2021/12/31 17:09:53;;;;;;;2.50;1.40;;;;;;;17.23;65.03;101264.19;21164287;28;20109;-74
2021/12/31 17:19:55;;;;;;;3.10;1.33;;;;;;;17.41;65.12;101309.44;21163347;27;20047;-74
2021/12/31 17:29:57;;;;;;;3.20;1.55;;;;;;;17.04;65.06;101285.44;21161850;27;20116;-73
2021/12/31 17:39:59;;;;;;;2.53;1.33;;;;;;;17.35;65.12;101340.38;21161875;28;20043;-72
2021/12/31 17:50:01;;;;;;;3.35;1.50;;;;;;;17.09;65.29;101278.75;21160827;28;20412;-72
2021/12/31 18:00:07;;;;;;;4.33;1.40;;;;;;;17.37;65.13;101307.97;21158902;28;20051;-72
2021/12/31 18:10:14;;;;;;;2.25;1.15;;;;;;;17.62;64.81;101319.44;21142304;28;20278;-73
2021/12/31 18:20:16;;;;;;;1.73;0.98;;;;;;;18.10;65.02;101393.72;21158498;28;20047;-72
2021/12/31 18:30:18;;;;;;;2.53;1.20;;;;;;;18.01;65.14;101402.56;21157947;28;20051;-72
2021/12/31 18:40:20;;;;;;;2.90;1.00;;;;;;;17.81;65.23;101373.53;21157068;28;20043;-71
2021/12/31 18:50:22;;;;;;;1.67;1.15;;;;;;;18.17;65.40;101451.50;21157158;28;20051;-71
2021/12/31 19:00:24;;;;;;;3.80;1.30;;;;;;;18.16;65.65;101465.13;21156463;28;20051;-72
2021/12/31 19:10:26;;;;;;;3.47;1.30;;;;;;;17.75;65.85;101378.53;21154901;28;20044;-72
2021/12/31 19:20:28;;;;;;;2.75;1.30;;;;;;;18.15;66.12;101452.63;21155313;28;20043;-71
2021/12/31 19:30:30;;;;;;;2.53;1.55;;;;;;;17.71;66.35;101383.34;21155252;28;20100;-71
2021/12/31 19:40:31;;;;;;;3.08;2.00;;;;;;;17.86;66.58;101421.63;21154785;28;20044;-71
2021/12/31 19:50:42;;;;;;;4.50;2.08;;;;;;;18.25;66.75;101496.72;21160421;28;20273;-70
2021/12/31 20:00:43;;;;;;;3.40;1.60;;;;;;;18.32;66.83;101524.00;21169689;28;20055;-71
2021/12/31 20:10:45;;;;;;;3.00;1.73;;;;;;;18.31;66.90;101533.94;21167627;28;20108;-72
2021/12/31 20:20:47;;;;;;;5.63;1.88;;;;;;;18.31;66.79;101539.34;21167793;28;20040;-71
2021/12/31 20:30:49;;;;;;;4.45;1.70;;;;;;;18.32;66.79;101546.44;21167333;28;20055;-71
2021/12/31 20:40:51;;;;;;;6.50;1.88;;;;;;;18.19;67.13;101529.56;21166795;28;20050;-71
2021/12/31 20:50:53;;;;;;;4.68;1.83;;;;;;;18.34;67.14;101570.56;21164663;28;20065;-71
2021/12/31 21:00:54;;;;;;;4.57;2.15;;;;;;;17.89;67.19;101522.88;21163302;28;20142;-71
2021/12/31 21:10:56;;;;;;;6.57;1.80;;;;;;;17.93;67.39;101537.81;21164586;28;20576;-71
2021/12/31 21:20:58;;;;;;;3.53;2.10;;;;;;;18.30;67.54;101602.31;21162916;28;20043;-71
2021/12/31 21:31:00;;;;;;;6.05;2.30;;;;;;;18.35;67.58;101621.66;21162550;28;20058;-71
2021/12/31 21:41:05;;;;;;;5.00;2.30;;;;;;;17.85;67.67;101537.56;21160708;28;20131;-71
2021/12/31 21:51:07;;;;;;;4.50;2.30;;;;;;;18.38;67.72;101652.94;21159765;28;20108;-71
2021/12/31 22:01:09;;;;;;;4.72;2.42;;;;;;;17.86;67.85;101585.91;21160263;28;20309;-71
2021/12/31 22:11:12;;;;;;;3.00;1.92;;;;;;;18.37;67.99;101667.38;21158733;28;20048;-71
2021/12/31 22:21:14;;;;;;;3.75;2.17;;;;;;;18.38;68.12;101664.56;21157690;28;20051;-71
2021/12/31 22:31:16;;;;;;;7.63;2.67;;;;;;;18.36;68.30;101671.06;21158312;28;20059;-72
2021/12/31 22:41:18;;;;;;;3.97;2.35;;;;;;;18.33;67.96;101674.84;21157312;28;20048;-71
2021/12/31 22:51:19;;;;;;;6.63;2.10;;;;;;;18.10;67.50;101644.31;21156944;28;20046;-71
2021/12/31 23:01:23;;;;;;;6.30;2.42;;;;;;;18.00;67.07;101649.50;21156296;28;20052;-72
2021/12/31 23:11:28;;;;;;;5.70;2.63;;;;;;;17.94;66.79;101663.47;21156092;28;20074;-71
2021/12/31 23:21:31;;;;;;;4.80;2.43;;;;;;;17.61;66.82;101628.22;21154842;28;20544;-71
2021/12/31 23:31:34;;;;;;;5.70;3.03;;;;;;;17.94;66.33;101703.88;21171142;28;20048;-71
2021/12/31 23:41:45;;;;;;;4.63;2.58;;;;;;;17.93;66.33;101712.91;21171391;28;20054;-71
2021/12/31 23:51:48;;;;;;;6.30;2.70;;;;;;;17.86;66.40;101717.06;21169523;28;20044;-71
